sensor_id;sensor_type;location;lat;lon;timestamp;P1;durP1;ratioP1;P2;durP2;ratioP2
18881;SDS011;9573;50.948;11.600;2023-07-13T00:00:48;8.53;;;2.33;;
18881;SDS011;9573;50.948;11.600;2023-07-13T00:03:15;5.30;;;1.90;;
18881;SDS011;9573;50.948;11.600;2023-07-13T00:05:42;7.80;;;1.87;;
18881;SDS011;9573;50.948;11.600;2023-07-13T00:08:11;5.00;;;1.87;;
18881;SDS011;9573;50.948;11.600;2023-07-13T00:10:41;8.67;;;2.00;;
18881;SDS011;9573;50.948;11.600;2023-07-13T00:13:10;7.10;;;1.83;;
18881;SDS011;9573;50.948;11.600;2023-07-13T00:15:37;6.33;;;1.90;;
18881;SDS011;9573;50.948;11.600;2023-07-13T00:18:05;6.43;;;2.43;;
18881;SDS011;9573;50.948;11.600;2023-07-13T00:20:32;4.13;;;1.73;;
18881;SDS011;9573;50.948;11.600;2023-07-13T00:22:59;4.70;;;2.27;;
18881;SDS011;9573;50.948;11.600;2023-07-13T00:25:28;11.53;;;2.13;;
18881;SDS011;9573;50.948;11.600;2023-07-13T00:27:55;6.60;;;1.93;;
18881;SDS011;9573;50.948;11.600;2023-07-13T00:30:22;7.60;;;2.20;;
18881;SDS011;9573;50.948;11.600;2023-07-13T00:32:50;6.50;;;2.00;;
18881;SDS011;9573;50.948;11.600;2023-07-13T00:35:18;5.93;;;1.77;;
18881;SDS011;9573;50.948;11.600;2023-07-13T00:37:45;9.03;;;2.20;;
18881;SDS011;9573;50.948;11.600;2023-07-13T00:40:12;2.40;;;1.60;;
18881;SDS011;9573;50.948;11.600;2023-07-13T00:42:42;5.90;;;1.80;;
18881;SDS011;9573;50.948;11.600;2023-07-13T00:48:36;4.50;;;1.53;;
18881;SDS011;9573;50.948;11.600;2023-07-13T00:51:04;13.37;;;2.20;;
18881;SDS011;9573;50.948;11.600;2023-07-13T00:53:31;10.23;;;2.17;;
18881;SDS011;9573;50.948;11.600;2023-07-13T00:56:00;5.70;;;2.00;;
18881;SDS011;9573;50.948;11.600;2023-07-13T00:58:29;5.43;;;2.00;;
18881;SDS011;9573;50.948;11.600;2023-07-13T01:00:56;7.97;;;2.00;;
18881;SDS011;9573;50.948;11.600;2023-07-13T01:03:24;5.87;;;2.00;;
18881;SDS011;9573;50.948;11.600;2023-07-13T01:05:51;4.63;;;2.00;;
18881;SDS011;9573;50.948;11.600;2023-07-13T01:08:19;4.00;;;1.80;;
18881;SDS011;9573;50.948;11.600;2023-07-13T01:10:53;2.40;;;1.70;;
18881;SDS011;9573;50.948;11.600;2023-07-13T01:13:21;4.70;;;1.83;;
18881;SDS011;9573;50.948;11.600;2023-07-13T01:15:51;6.07;;;1.80;;
18881;SDS011;9573;50.948;11.600;2023-07-13T01:18:20;4.93;;;1.90;;
18881;SDS011;9573;50.948;11.600;2023-07-13T01:20:54;4.70;;;1.67;;
18881;SDS011;9573;50.948;11.600;2023-07-13T01:23:24;7.03;;;2.00;;
18881;SDS011;9573;50.948;11.600;2023-07-13T01:25:52;4.77;;;2.17;;
18881;SDS011;9573;50.948;11.600;2023-07-13T01:28:20;6.90;;;1.90;;
18881;SDS011;9573;50.948;11.600;2023-07-13T01:30:52;3.37;;;1.90;;
18881;SDS011;9573;50.948;11.600;2023-07-13T01:33:20;4.73;;;1.80;;
18881;SDS011;9573;50.948;11.600;2023-07-13T01:35:47;5.83;;;1.70;;
18881;SDS011;9573;50.948;11.600;2023-07-13T01:38:17;8.50;;;2.13;;
18881;SDS011;9573;50.948;11.600;2023-07-13T01:40:46;7.80;;;2.40;;
18881;SDS011;9573;50.948;11.600;2023-07-13T01:43:14;7.00;;;1.90;;
18881;SDS011;9573;50.948;11.600;2023-07-13T01:45:41;4.43;;;1.53;;
18881;SDS011;9573;50.948;11.600;2023-07-13T01:48:09;4.90;;;2.00;;
18881;SDS011;9573;50.948;11.600;2023-07-13T01:50:36;8.00;;;2.00;;
18881;SDS011;9573;50.948;11.600;2023-07-13T01:53:04;7.37;;;2.03;;
18881;SDS011;9573;50.948;11.600;2023-07-13T01:55:33;8.50;;;2.10;;
18881;SDS011;9573;50.948;11.600;2023-07-13T01:58:01;4.87;;;1.80;;
18881;SDS011;9573;50.948;11.600;2023-07-13T02:00:29;6.47;;;1.70;;
18881;SDS011;9573;50.948;11.600;2023-07-13T02:02:57;5.27;;;1.93;;
18881;SDS011;9573;50.948;11.600;2023-07-13T02:05:25;4.07;;;1.90;;
18881;SDS011;9573;50.948;11.600;2023-07-13T02:07:52;7.77;;;2.43;;
18881;SDS011;9573;50.948;11.600;2023-07-13T02:10:19;6.40;;;1.90;;
18881;SDS011;9573;50.948;11.600;2023-07-13T02:12:47;3.47;;;1.70;;
18881;SDS011;9573;50.948;11.600;2023-07-13T02:15:15;5.00;;;1.80;;
18881;SDS011;9573;50.948;11.600;2023-07-13T02:17:42;5.43;;;1.93;;
18881;SDS011;9573;50.948;11.600;2023-07-13T02:20:10;6.90;;;2.10;;
18881;SDS011;9573;50.948;11.600;2023-07-13T02:22:37;4.00;;;2.00;;
18881;SDS011;9573;50.948;11.600;2023-07-13T02:25:04;7.33;;;1.93;;
18881;SDS011;9573;50.948;11.600;2023-07-13T02:27:32;9.00;;;2.20;;
18881;SDS011;9573;50.948;11.600;2023-07-13T02:30:00;8.20;;;2.20;;
18881;SDS011;9573;50.948;11.600;2023-07-13T02:32:28;12.03;;;2.10;;
18881;SDS011;9573;50.948;11.600;2023-07-13T02:34:55;8.47;;;2.07;;
18881;SDS011;9573;50.948;11.600;2023-07-13T02:37:22;3.70;;;1.97;;
18881;SDS011;9573;50.948;11.600;2023-07-13T02:39:49;5.23;;;1.90;;
18881;SDS011;9573;50.948;11.600;2023-07-13T02:42:16;8.10;;;1.90;;
18881;SDS011;9573;50.948;11.600;2023-07-13T02:44:43;6.53;;;1.83;;
18881;SDS011;9573;50.948;11.600;2023-07-13T02:47:11;10.53;;;2.00;;
18881;SDS011;9573;50.948;11.600;2023-07-13T02:49:39;5.37;;;1.80;;
18881;SDS011;9573;50.948;11.600;2023-07-13T02:52:06;5.63;;;2.10;;
18881;SDS011;9573;50.948;11.600;2023-07-13T02:54:33;6.33;;;2.10;;
18881;SDS011;9573;50.948;11.600;2023-07-13T02:57:00;6.67;;;2.10;;
18881;SDS011;9573;50.948;11.600;2023-07-13T02:59:27;5.33;;;2.07;;
18881;SDS011;9573;50.948;11.600;2023-07-13T03:01:54;6.20;;;1.87;;
18881;SDS011;9573;50.948;11.600;2023-07-13T03:04:23;6.93;;;2.10;;
18881;SDS011;9573;50.948;11.600;2023-07-13T03:06:50;4.67;;;2.10;;
18881;SDS011;9573;50.948;11.600;2023-07-13T03:09:17;6.90;;;2.10;;
18881;SDS011;9573;50.948;11.600;2023-07-13T03:11:44;8.53;;;1.90;;
18881;SDS011;9573;50.948;11.600;2023-07-13T03:14:11;8.27;;;2.20;;
18881;SDS011;9573;50.948;11.600;2023-07-13T03:16:38;7.97;;;2.30;;
18881;SDS011;9573;50.948;11.600;2023-07-13T03:19:06;5.20;;;2.13;;
18881;SDS011;9573;50.948;11.600;2023-07-13T03:21:34;5.83;;;2.20;;
18881;SDS011;9573;50.948;11.600;2023-07-13T03:24:01;4.27;;;1.90;;
18881;SDS011;9573;50.948;11.600;2023-07-13T03:26:28;3.53;;;1.97;;
18881;SDS011;9573;50.948;11.600;2023-07-13T03:28:55;9.50;;;2.27;;
18881;SDS011;9573;50.948;11.600;2023-07-13T03:31:24;7.73;;;1.93;;
18881;SDS011;9573;50.948;11.600;2023-07-13T03:33:55;6.40;;;2.37;;
18881;SDS011;9573;50.948;11.600;2023-07-13T03:36:23;5.03;;;2.10;;
18881;SDS011;9573;50.948;11.600;2023-07-13T03:38:55;7.93;;;2.50;;
18881;SDS011;9573;50.948;11.600;2023-07-13T03:41:24;10.07;;;2.40;;
18881;SDS011;9573;50.948;11.600;2023-07-13T03:43:52;9.93;;;2.40;;
18881;SDS011;9573;50.948;11.600;2023-07-13T03:46:19;8.80;;;2.67;;
18881;SDS011;9573;50.948;11.600;2023-07-13T03:48:47;8.17;;;2.40;;
18881;SDS011;9573;50.948;11.600;2023-07-13T03:51:15;6.33;;;2.23;;
18881;SDS011;9573;50.948;11.600;2023-07-13T03:53:44;6.37;;;2.27;;
18881;SDS011;9573;50.948;11.600;2023-07-13T03:56:14;11.13;;;2.70;;
18881;SDS011;9573;50.948;11.600;2023-07-13T03:58:44;5.37;;;2.00;;
18881;SDS011;9573;50.948;11.600;2023-07-13T04:01:14;8.90;;;2.13;;
18881;SDS011;9573;50.948;11.600;2023-07-13T04:03:42;7.53;;;2.07;;
18881;SDS011;9573;50.948;11.600;2023-07-13T04:06:13;6.83;;;2.00;;
18881;SDS011;9573;50.948;11.600;2023-07-13T04:08:46;4.70;;;2.20;;
18881;SDS011;9573;50.948;11.600;2023-07-13T04:11:17;7.80;;;2.10;;
18881;SDS011;9573;50.948;11.600;2023-07-13T04:13:45;7.73;;;2.13;;
18881;SDS011;9573;50.948;11.600;2023-07-13T04:16:12;6.83;;;2.20;;
18881;SDS011;9573;50.948;11.600;2023-07-13T04:18:40;7.50;;;2.00;;
18881;SDS011;9573;50.948;11.600;2023-07-13T04:21:07;9.43;;;3.33;;
18881;SDS011;9573;50.948;11.600;2023-07-13T04:23:35;7.80;;;1.90;;
18881;SDS011;9573;50.948;11.600;2023-07-13T04:26:02;10.60;;;2.30;;
18881;SDS011;9573;50.948;11.600;2023-07-13T04:28:31;8.57;;;2.30;;
18881;SDS011;9573;50.948;11.600;2023-07-13T04:30:58;8.67;;;2.50;;
18881;SDS011;9573;50.948;11.600;2023-07-13T04:33:26;8.63;;;2.40;;
18881;SDS011;9573;50.948;11.600;2023-07-13T04:35:54;6.40;;;2.20;;
18881;SDS011;9573;50.948;11.600;2023-07-13T04:38:22;5.77;;;2.00;;
18881;SDS011;9573;50.948;11.600;2023-07-13T04:40:51;6.60;;;2.20;;
18881;SDS011;9573;50.948;11.600;2023-07-13T04:43:18;4.83;;;2.27;;
18881;SDS011;9573;50.948;11.600;2023-07-13T04:45:46;8.70;;;2.40;;
18881;SDS011;9573;50.948;11.600;2023-07-13T04:48:13;7.20;;;2.37;;
18881;SDS011;9573;50.948;11.600;2023-07-13T04:50:41;7.70;;;2.23;;
18881;SDS011;9573;50.948;11.600;2023-07-13T04:53:08;9.63;;;2.43;;
18881;SDS011;9573;50.948;11.600;2023-07-13T04:55:36;11.40;;;2.77;;
18881;SDS011;9573;50.948;11.600;2023-07-13T04:58:04;7.50;;;2.10;;
18881;SDS011;9573;50.948;11.600;2023-07-13T05:00:31;6.97;;;2.33;;
18881;SDS011;9573;50.948;11.600;2023-07-13T05:02:59;8.10;;;2.30;;
18881;SDS011;9573;50.948;11.600;2023-07-13T05:05:27;7.70;;;2.40;;
18881;SDS011;9573;50.948;11.600;2023-07-13T05:07:54;7.60;;;2.23;;
18881;SDS011;9573;50.948;11.600;2023-07-13T05:10:21;8.90;;;2.27;;
18881;SDS011;9573;50.948;11.600;2023-07-13T05:12:49;6.40;;;2.50;;
18881;SDS011;9573;50.948;11.600;2023-07-13T05:15:16;6.97;;;2.40;;
18881;SDS011;9573;50.948;11.600;2023-07-13T05:17:46;8.43;;;2.27;;
18881;SDS011;9573;50.948;11.600;2023-07-13T05:20:15;8.60;;;2.20;;
18881;SDS011;9573;50.948;11.600;2023-07-13T05:22:44;13.47;;;2.63;;
18881;SDS011;9573;50.948;11.600;2023-07-13T05:25:12;7.87;;;2.73;;
18881;SDS011;9573;50.948;11.600;2023-07-13T05:27:40;8.07;;;2.23;;
18881;SDS011;9573;50.948;11.600;2023-07-13T05:30:07;6.10;;;2.20;;
18881;SDS011;9573;50.948;11.600;2023-07-13T05:32:37;11.30;;;2.30;;
18881;SDS011;9573;50.948;11.600;2023-07-13T05:35:04;14.43;;;2.80;;
18881;SDS011;9573;50.948;11.600;2023-07-13T05:37:34;7.00;;;2.30;;
18881;SDS011;9573;50.948;11.600;2023-07-13T05:40:01;9.83;;;2.30;;
18881;SDS011;9573;50.948;11.600;2023-07-13T05:42:29;7.00;;;2.50;;
18881;SDS011;9573;50.948;11.600;2023-07-13T05:44:57;8.68;;;2.42;;
18881;SDS011;9573;50.948;11.600;2023-07-13T05:47:24;9.43;;;2.47;;
18881;SDS011;9573;50.948;11.600;2023-07-13T05:49:51;11.38;;;2.55;;
18881;SDS011;9573;50.948;11.600;2023-07-13T05:52:18;11.25;;;2.53;;
18881;SDS011;9573;50.948;11.600;2023-07-13T05:54:47;10.05;;;2.45;;
18881;SDS011;9573;50.948;11.600;2023-07-13T05:57:14;19.05;;;2.92;;
18881;SDS011;9573;50.948;11.600;2023-07-13T05:59:41;8.05;;;2.30;;
18881;SDS011;9573;50.948;11.600;2023-07-13T06:02:08;9.27;;;2.38;;
18881;SDS011;9573;50.948;11.600;2023-07-13T06:04:36;4.20;;;2.10;;
18881;SDS011;9573;50.948;11.600;2023-07-13T06:07:03;6.00;;;2.38;;
18881;SDS011;9573;50.948;11.600;2023-07-13T06:09:31;6.78;;;2.25;;
18881;SDS011;9573;50.948;11.600;2023-07-13T06:11:59;6.60;;;2.33;;
18881;SDS011;9573;50.948;11.600;2023-07-13T06:14:26;3.80;;;2.10;;
18881;SDS011;9573;50.948;11.600;2023-07-13T06:16:53;8.18;;;2.10;;
18881;SDS011;9573;50.948;11.600;2023-07-13T06:19:20;10.50;;;2.55;;
18881;SDS011;9573;50.948;11.600;2023-07-13T06:21:47;9.75;;;2.10;;
18881;SDS011;9573;50.948;11.600;2023-07-13T06:24:15;8.60;;;2.15;;
18881;SDS011;9573;50.948;11.600;2023-07-13T06:26:42;12.27;;;2.80;;
18881;SDS011;9573;50.948;11.600;2023-07-13T06:29:10;5.20;;;2.20;;
18881;SDS011;9573;50.948;11.600;2023-07-13T06:31:37;6.80;;;2.30;;
18881;SDS011;9573;50.948;11.600;2023-07-13T06:34:04;6.18;;;2.30;;
18881;SDS011;9573;50.948;11.600;2023-07-13T06:36:31;7.13;;;2.30;;
18881;SDS011;9573;50.948;11.600;2023-07-13T06:38:59;8.75;;;2.60;;
18881;SDS011;9573;50.948;11.600;2023-07-13T06:41:26;5.68;;;2.40;;
18881;SDS011;9573;50.948;11.600;2023-07-13T06:43:53;7.18;;;1.83;;
18881;SDS011;9573;50.948;11.600;2023-07-13T06:46:22;6.97;;;2.38;;
18881;SDS011;9573;50.948;11.600;2023-07-13T06:48:49;7.53;;;2.50;;
18881;SDS011;9573;50.948;11.600;2023-07-13T06:51:17;8.07;;;2.15;;
18881;SDS011;9573;50.948;11.600;2023-07-13T06:53:44;10.43;;;2.22;;
18881;SDS011;9573;50.948;11.600;2023-07-13T06:56:11;9.35;;;2.40;;
18881;SDS011;9573;50.948;11.600;2023-07-13T06:58:38;5.85;;;2.20;;
18881;SDS011;9573;50.948;11.600;2023-07-13T07:01:05;9.20;;;2.53;;
18881;SDS011;9573;50.948;11.600;2023-07-13T07:03:33;6.95;;;2.30;;
18881;SDS011;9573;50.948;11.600;2023-07-13T07:06:01;7.15;;;2.20;;
18881;SDS011;9573;50.948;11.600;2023-07-13T07:08:33;7.13;;;2.33;;
18881;SDS011;9573;50.948;11.600;2023-07-13T07:11:00;6.95;;;2.20;;
18881;SDS011;9573;50.948;11.600;2023-07-13T07:13:27;7.45;;;2.20;;
18881;SDS011;9573;50.948;11.600;2023-07-13T07:15:55;11.88;;;2.30;;
18881;SDS011;9573;50.948;11.600;2023-07-13T07:18:22;10.98;;;2.40;;
18881;SDS011;9573;50.948;11.600;2023-07-13T07:20:50;4.10;;;2.00;;
18881;SDS011;9573;50.948;11.600;2023-07-13T07:23:18;8.35;;;2.22;;
18881;SDS011;9573;50.948;11.600;2023-07-13T07:25:45;10.57;;;2.15;;
18881;SDS011;9573;50.948;11.600;2023-07-13T07:28:14;8.45;;;2.20;;
18881;SDS011;9573;50.948;11.600;2023-07-13T07:30:43;13.13;;;2.40;;
18881;SDS011;9573;50.948;11.600;2023-07-13T07:33:11;8.57;;;2.50;;
18881;SDS011;9573;50.948;11.600;2023-07-13T07:35:38;13.38;;;2.80;;
18881;SDS011;9573;50.948;11.600;2023-07-13T07:38:07;9.40;;;2.30;;
18881;SDS011;9573;50.948;11.600;2023-07-13T07:40:36;10.70;;;2.17;;
18881;SDS011;9573;50.948;11.600;2023-07-13T07:43:04;6.18;;;2.30;;
18881;SDS011;9573;50.948;11.600;2023-07-13T07:45:31;6.90;;;2.25;;
18881;SDS011;9573;50.948;11.600;2023-07-13T07:47:58;9.30;;;2.40;;
18881;SDS011;9573;50.948;11.600;2023-07-13T07:50:26;6.43;;;2.40;;
18881;SDS011;9573;50.948;11.600;2023-07-13T07:52:53;6.18;;;2.38;;
18881;SDS011;9573;50.948;11.600;2023-07-13T07:55:23;8.13;;;2.38;;
18881;SDS011;9573;50.948;11.600;2023-07-13T07:57:52;9.32;;;2.60;;
18881;SDS011;9573;50.948;11.600;2023-07-13T08:00:19;8.60;;;2.10;;
18881;SDS011;9573;50.948;11.600;2023-07-13T08:02:47;8.27;;;2.50;;
18881;SDS011;9573;50.948;11.600;2023-07-13T08:05:14;6.88;;;2.10;;
18881;SDS011;9573;50.948;11.600;2023-07-13T08:07:41;9.85;;;2.13;;
18881;SDS011;9573;50.948;11.600;2023-07-13T08:10:09;6.90;;;2.40;;
18881;SDS011;9573;50.948;11.600;2023-07-13T08:12:37;8.48;;;2.30;;
18881;SDS011;9573;50.948;11.600;2023-07-13T08:15:07;4.18;;;1.88;;
18881;SDS011;9573;50.948;11.600;2023-07-13T08:17:38;6.35;;;1.92;;
18881;SDS011;9573;50.948;11.600;2023-07-13T08:20:06;6.07;;;2.20;;
18881;SDS011;9573;50.948;11.600;2023-07-13T08:22:34;9.93;;;2.35;;
18881;SDS011;9573;50.948;11.600;2023-07-13T08:25:02;5.32;;;1.83;;
18881;SDS011;9573;50.948;11.600;2023-07-13T08:27:31;7.30;;;2.10;;
18881;SDS011;9573;50.948;11.600;2023-07-13T08:30:00;7.85;;;2.20;;
18881;SDS011;9573;50.948;11.600;2023-07-13T08:32:28;3.88;;;1.90;;
18881;SDS011;9573;50.948;11.600;2023-07-13T08:34:55;7.28;;;2.05;;
18881;SDS011;9573;50.948;11.600;2023-07-13T08:37:22;5.03;;;1.95;;
18881;SDS011;9573;50.948;11.600;2023-07-13T08:39:49;6.47;;;2.00;;
18881;SDS011;9573;50.948;11.600;2023-07-13T08:42:20;5.75;;;2.25;;
18881;SDS011;9573;50.948;11.600;2023-07-13T08:45:02;7.22;;;2.20;;
18881;SDS011;9573;50.948;11.600;2023-07-13T08:47:39;9.80;;;2.10;;
18881;SDS011;9573;50.948;11.600;2023-07-13T08:50:10;8.75;;;2.20;;
18881;SDS011;9573;50.948;11.600;2023-07-13T08:52:42;4.25;;;1.73;;
18881;SDS011;9573;50.948;11.600;2023-07-13T08:55:12;6.03;;;2.00;;
18881;SDS011;9573;50.948;11.600;2023-07-13T08:57:43;3.38;;;1.83;;
18881;SDS011;9573;50.948;11.600;2023-07-13T09:00:14;6.13;;;1.65;;
18881;SDS011;9573;50.948;11.600;2023-07-13T09:02:43;5.63;;;1.98;;
18881;SDS011;9573;50.948;11.600;2023-07-13T09:05:22;5.80;;;2.22;;
18881;SDS011;9573;50.948;11.600;2023-07-13T09:10:58;8.13;;;2.03;;
18881;SDS011;9573;50.948;11.600;2023-07-13T09:13:39;5.75;;;2.00;;
18881;SDS011;9573;50.948;11.600;2023-07-13T09:16:15;5.68;;;2.00;;
18881;SDS011;9573;50.948;11.600;2023-07-13T09:18:44;6.97;;;2.00;;
18881;SDS011;9573;50.948;11.600;2023-07-13T09:21:15;7.97;;;2.05;;
18881;SDS011;9573;50.948;11.600;2023-07-13T09:23:48;2.80;;;1.40;;
18881;SDS011;9573;50.948;11.600;2023-07-13T09:26:22;4.60;;;1.58;;
18881;SDS011;9573;50.948;11.600;2023-07-13T09:28:51;3.60;;;1.90;;
18881;SDS011;9573;50.948;11.600;2023-07-13T09:31:26;4.80;;;1.75;;
18881;SDS011;9573;50.948;11.600;2023-07-13T09:34:00;6.20;;;1.75;;
18881;SDS011;9573;50.948;11.600;2023-07-13T09:36:28;4.05;;;1.73;;
18881;SDS011;9573;50.948;11.600;2023-07-13T09:38:59;5.00;;;1.83;;
18881;SDS011;9573;50.948;11.600;2023-07-13T09:41:32;3.85;;;1.50;;
18881;SDS011;9573;50.948;11.600;2023-07-13T09:44:07;3.17;;;1.35;;
18881;SDS011;9573;50.948;11.600;2023-07-13T09:46:39;5.63;;;1.90;;
18881;SDS011;9573;50.948;11.600;2023-07-13T09:49:11;5.13;;;1.38;;
18881;SDS011;9573;50.948;11.600;2023-07-13T09:51:40;3.67;;;1.50;;
18881;SDS011;9573;50.948;11.600;2023-07-13T09:54:17;6.03;;;1.60;;
18881;SDS011;9573;50.948;11.600;2023-07-13T09:56:46;5.70;;;1.35;;
18881;SDS011;9573;50.948;11.600;2023-07-13T09:59:20;3.50;;;1.50;;
18881;SDS011;9573;50.948;11.600;2023-07-13T10:01:51;4.05;;;1.33;;
18881;SDS011;9573;50.948;11.600;2023-07-13T10:04:19;2.22;;;0.88;;
18881;SDS011;9573;50.948;11.600;2023-07-13T10:07:05;7.80;;;1.50;;
18881;SDS011;9573;50.948;11.600;2023-07-13T10:09:34;1.08;;;0.98;;
18881;SDS011;9573;50.948;11.600;2023-07-13T10:12:03;3.78;;;1.08;;
18881;SDS011;9573;50.948;11.600;2023-07-13T10:14:41;4.75;;;1.00;;
18881;SDS011;9573;50.948;11.600;2023-07-13T10:17:10;6.35;;;1.20;;
18881;SDS011;9573;50.948;11.600;2023-07-13T10:19:40;3.20;;;0.80;;
18881;SDS011;9573;50.948;11.600;2023-07-13T10:22:12;1.85;;;1.10;;
18881;SDS011;9573;50.948;11.600;2023-07-13T10:24:50;1.80;;;1.13;;
18881;SDS011;9573;50.948;11.600;2023-07-13T10:27:18;3.55;;;1.13;;
18881;SDS011;9573;50.948;11.600;2023-07-13T10:29:59;6.25;;;2.38;;
18881;SDS011;9573;50.948;11.600;2023-07-13T10:32:35;2.88;;;1.15;;
18881;SDS011;9573;50.948;11.600;2023-07-13T10:35:03;4.55;;;1.45;;
18881;SDS011;9573;50.948;11.600;2023-07-13T10:37:34;2.67;;;2.05;;
18881;SDS011;9573;50.948;11.600;2023-07-13T10:40:12;3.75;;;1.90;;
18881;SDS011;9573;50.948;11.600;2023-07-13T10:42:42;1.95;;;1.73;;
18881;SDS011;9573;50.948;11.600;2023-07-13T10:45:13;5.72;;;1.67;;
18881;SDS011;9573;50.948;11.600;2023-07-13T10:47:44;4.40;;;1.02;;
18881;SDS011;9573;50.948;11.600;2023-07-13T10:50:14;4.00;;;1.63;;
18881;SDS011;9573;50.948;11.600;2023-07-13T10:52:47;4.20;;;1.55;;
18881;SDS011;9573;50.948;11.600;2023-07-13T10:55:33;1.52;;;1.23;;
18881;SDS011;9573;50.948;11.600;2023-07-13T10:58:11;3.47;;;1.40;;
18881;SDS011;9573;50.948;11.600;2023-07-13T11:00:46;2.38;;;1.13;;
18881;SDS011;9573;50.948;11.600;2023-07-13T11:03:18;4.63;;;1.60;;
18881;SDS011;9573;50.948;11.600;2023-07-13T11:05:49;4.13;;;1.35;;
18881;SDS011;9573;50.948;11.600;2023-07-13T11:08:21;1.92;;;1.27;;
18881;SDS011;9573;50.948;11.600;2023-07-13T11:11:01;2.22;;;1.25;;
18881;SDS011;9573;50.948;11.600;2023-07-13T11:13:38;4.07;;;1.05;;
18881;SDS011;9573;50.948;11.600;2023-07-13T11:19:27;3.53;;;1.30;;
18881;SDS011;9573;50.948;11.600;2023-07-13T11:22:22;1.45;;;1.00;;
18881;SDS011;9573;50.948;11.600;2023-07-13T11:25:01;2.60;;;1.20;;
18881;SDS011;9573;50.948;11.600;2023-07-13T11:27:52;2.47;;;1.30;;
18881;SDS011;9573;50.948;11.600;2023-07-13T11:30:43;4.20;;;1.63;;
18881;SDS011;9573;50.948;11.600;2023-07-13T11:33:17;4.93;;;1.58;;
18881;SDS011;9573;50.948;11.600;2023-07-13T11:35:53;2.78;;;0.90;;
18881;SDS011;9573;50.948;11.600;2023-07-13T11:38:28;1.70;;;1.20;;
18881;SDS011;9573;50.948;11.600;2023-07-13T11:41:00;2.15;;;1.17;;
18881;SDS011;9573;50.948;11.600;2023-07-13T11:43:32;2.20;;;1.05;;
18881;SDS011;9573;50.948;11.600;2023-07-13T11:46:12;5.03;;;1.55;;
18881;SDS011;9573;50.948;11.600;2023-07-13T11:48:44;2.03;;;0.90;;
18881;SDS011;9573;50.948;11.600;2023-07-13T11:51:17;3.78;;;1.20;;
18881;SDS011;9573;50.948;11.600;2023-07-13T11:53:51;4.22;;;1.48;;
18881;SDS011;9573;50.948;11.600;2023-07-13T11:56:20;7.75;;;1.60;;
18881;SDS011;9573;50.948;11.600;2023-07-13T11:58:49;4.32;;;1.40;;
18881;SDS011;9573;50.948;11.600;2023-07-13T12:01:19;4.00;;;1.08;;
18881;SDS011;9573;50.948;11.600;2023-07-13T12:03:51;4.25;;;1.25;;
18881;SDS011;9573;50.948;11.600;2023-07-13T12:06:24;3.17;;;1.27;;
18881;SDS011;9573;50.948;11.600;2023-07-13T12:08:57;7.20;;;1.55;;
18881;SDS011;9573;50.948;11.600;2023-07-13T12:11:26;5.82;;;1.40;;
18881;SDS011;9573;50.948;11.600;2023-07-13T12:13:54;4.22;;;1.45;;
18881;SDS011;9573;50.948;11.600;2023-07-13T12:16:26;4.47;;;1.60;;
18881;SDS011;9573;50.948;11.600;2023-07-13T12:18:57;5.85;;;1.20;;
18881;SDS011;9573;50.948;11.600;2023-07-13T12:21:30;3.35;;;1.23;;
18881;SDS011;9573;50.948;11.600;2023-07-13T12:23:59;3.63;;;1.20;;
18881;SDS011;9573;50.948;11.600;2023-07-13T12:26:31;3.60;;;1.45;;
18881;SDS011;9573;50.948;11.600;2023-07-13T12:28:59;3.33;;;1.42;;
18881;SDS011;9573;50.948;11.600;2023-07-13T12:31:34;3.65;;;1.02;;
18881;SDS011;9573;50.948;11.600;2023-07-13T12:34:07;5.75;;;1.38;;
18881;SDS011;9573;50.948;11.600;2023-07-13T12:36:41;3.13;;;1.65;;
18881;SDS011;9573;50.948;11.600;2023-07-13T12:39:15;6.40;;;1.42;;
18881;SDS011;9573;50.948;11.600;2023-07-13T12:41:46;2.80;;;1.15;;
18881;SDS011;9573;50.948;11.600;2023-07-13T12:44:15;1.58;;;1.23;;
18881;SDS011;9573;50.948;11.600;2023-07-13T12:46:52;3.28;;;1.35;;
18881;SDS011;9573;50.948;11.600;2023-07-13T12:49:24;3.20;;;1.48;;
18881;SDS011;9573;50.948;11.600;2023-07-13T12:51:57;1.77;;;1.33;;
18881;SDS011;9573;50.948;11.600;2023-07-13T12:54:27;1.85;;;1.50;;
18881;SDS011;9573;50.948;11.600;2023-07-13T12:56:55;5.47;;;1.33;;
18881;SDS011;9573;50.948;11.600;2023-07-13T12:59:25;5.45;;;1.50;;
18881;SDS011;9573;50.948;11.600;2023-07-13T13:02:01;1.30;;;1.15;;
18881;SDS011;9573;50.948;11.600;2023-07-13T13:04:43;5.70;;;1.58;;
18881;SDS011;9573;50.948;11.600;2023-07-13T13:07:13;1.27;;;0.90;;
18881;SDS011;9573;50.948;11.600;2023-07-13T13:09:40;2.03;;;1.38;;
18881;SDS011;9573;50.948;11.600;2023-07-13T13:12:07;1.85;;;1.38;;
18881;SDS011;9573;50.948;11.600;2023-07-13T13:14:35;3.92;;;1.40;;
18881;SDS011;9573;50.948;11.600;2023-07-13T13:17:04;3.33;;;1.55;;
18881;SDS011;9573;50.948;11.600;2023-07-13T13:19:45;2.80;;;1.40;;
18881;SDS011;9573;50.948;11.600;2023-07-13T13:22:14;3.45;;;1.17;;
18881;SDS011;9573;50.948;11.600;2023-07-13T13:24:41;2.50;;;1.45;;
18881;SDS011;9573;50.948;11.600;2023-07-13T13:27:12;4.78;;;1.50;;
18881;SDS011;9573;50.948;11.600;2023-07-13T13:29:43;7.35;;;1.60;;
18881;SDS011;9573;50.948;11.600;2023-07-13T13:32:12;4.22;;;1.55;;
18881;SDS011;9573;50.948;11.600;2023-07-13T13:34:40;7.05;;;1.55;;
18881;SDS011;9573;50.948;11.600;2023-07-13T13:37:11;4.55;;;1.40;;
18881;SDS011;9573;50.948;11.600;2023-07-13T13:39:46;2.65;;;1.48;;
18881;SDS011;9573;50.948;11.600;2023-07-13T13:42:13;3.45;;;1.38;;
18881;SDS011;9573;50.948;11.600;2023-07-13T13:44:41;5.43;;;1.40;;
18881;SDS011;9573;50.948;11.600;2023-07-13T13:47:15;5.25;;;1.58;;
18881;SDS011;9573;50.948;11.600;2023-07-13T13:49:56;1.85;;;1.38;;
18881;SDS011;9573;50.948;11.600;2023-07-13T13:52:24;1.90;;;1.23;;
18881;SDS011;9573;50.948;11.600;2023-07-13T13:54:52;4.65;;;1.58;;
18881;SDS011;9573;50.948;11.600;2023-07-13T13:57:21;5.78;;;1.23;;
18881;SDS011;9573;50.948;11.600;2023-07-13T13:59:49;2.35;;;1.30;;
18881;SDS011;9573;50.948;11.600;2023-07-13T14:02:22;1.95;;;1.10;;
18881;SDS011;9573;50.948;11.600;2023-07-13T14:04:54;1.10;;;0.93;;
18881;SDS011;9573;50.948;11.600;2023-07-13T14:07:25;2.05;;;1.05;;
18881;SDS011;9573;50.948;11.600;2023-07-13T14:09:54;1.30;;;0.82;;
18881;SDS011;9573;50.948;11.600;2023-07-13T14:12:24;2.35;;;1.00;;
18881;SDS011;9573;50.948;11.600;2023-07-13T14:14:53;5.65;;;1.50;;
18881;SDS011;9573;50.948;11.600;2023-07-13T14:17:22;5.07;;;1.50;;
18881;SDS011;9573;50.948;11.600;2023-07-13T14:19:53;5.15;;;1.30;;
18881;SDS011;9573;50.948;11.600;2023-07-13T14:22:22;2.75;;;1.15;;
18881;SDS011;9573;50.948;11.600;2023-07-13T14:24:52;2.60;;;1.40;;
18881;SDS011;9573;50.948;11.600;2023-07-13T14:27:20;4.10;;;1.30;;
18881;SDS011;9573;50.948;11.600;2023-07-13T14:29:47;3.58;;;1.27;;
18881;SDS011;9573;50.948;11.600;2023-07-13T14:32:14;1.50;;;1.10;;
18881;SDS011;9573;50.948;11.600;2023-07-13T14:34:42;2.90;;;1.30;;
18881;SDS011;9573;50.948;11.600;2023-07-13T14:37:11;2.55;;;1.27;;
18881;SDS011;9573;50.948;11.600;2023-07-13T14:39:41;9.93;;;1.90;;
18881;SDS011;9573;50.948;11.600;2023-07-13T14:42:11;5.03;;;1.38;;
18881;SDS011;9573;50.948;11.600;2023-07-13T14:44:38;4.57;;;1.50;;
18881;SDS011;9573;50.948;11.600;2023-07-13T14:47:06;5.53;;;1.52;;
18881;SDS011;9573;50.948;11.600;2023-07-13T14:49:34;2.63;;;1.08;;
18881;SDS011;9573;50.948;11.600;2023-07-13T14:52:05;2.38;;;1.00;;
18881;SDS011;9573;50.948;11.600;2023-07-13T14:54:39;5.05;;;1.40;;
18881;SDS011;9573;50.948;11.600;2023-07-13T14:57:09;5.35;;;1.15;;
18881;SDS011;9573;50.948;11.600;2023-07-13T14:59:39;3.50;;;1.05;;
18881;SDS011;9573;50.948;11.600;2023-07-13T15:02:13;2.03;;;1.17;;
18881;SDS011;9573;50.948;11.600;2023-07-13T15:04:43;3.38;;;1.40;;
18881;SDS011;9573;50.948;11.600;2023-07-13T15:07:11;6.18;;;1.40;;
18881;SDS011;9573;50.948;11.600;2023-07-13T15:09:40;2.03;;;1.25;;
18881;SDS011;9573;50.948;11.600;2023-07-13T15:12:08;4.55;;;1.08;;